Nordic Stockholm — 2DKI2 — position and weather

sailwx.info

Track history (hours):
 
Tides and Currents Weather Stations Pressure Air Temp Water Temp Dewpoint Dewpoint Depression Visibility Wind Speed Wind Dir Waves Ship Positions

Nordic Stockholm

Last reported at 2017-Nov-04 20:37 UTC. Time now 2017-Nov-19 08:58 UTC.
Position N 01°14' E 104°01'.
Warning: this ship's position is 14 days out of date.

Length 180 m; draft 10.5 m.

Type: Cargo ship. MMSI: 235079725.

Date/timePositionNaut miles runAvg speedWind from/ knotsBaromVisibWave heightAir tempDewpointWater temp
2017-Nov-04 20:37N 01°14' E 104°01'212.7
2017-Nov-04 20:30N 01°14' E 103°60'510.8
2017-Nov-04 20:00N 01°14' E 103°54'2 2.4
2017-Nov-04 19:19N 01°15' E 103°53'0 0.0
2017-Nov-04 18:55N 01°15' E 103°53'0 0.0
2017-Nov-04 18:19N 01°15' E 103°53'0 0.0
2017-Nov-04 17:58N 01°15' E 103°53'0 0.1
2017-Nov-04 17:28N 01°15' E 103°53'0 0.0
2017-Nov-04 16:58N 01°15' E 103°53'0 0.0
2017-Nov-04 16:28N 01°15' E 103°53'0 0.0
2017-Nov-04 15:55N 01°15' E 103°53'0 0.0
2017-Nov-04 15:25N 01°15' E 103°53'0 0.0
2017-Nov-04 14:55N 01°15' E 103°53'0 0.0
2017-Nov-04 14:19N 01°15' E 103°53'0 0.0
2017-Nov-04 13:49N 01°15' E 103°53'0 0.2
2017-Nov-04 13:28N 01°15' E 103°53'0 0.1
2017-Nov-04 12:52N 01°15' E 103°53'0 0.0
2017-Nov-04 12:25N 01°15' E 103°53'0 0.1
2017-Nov-04 11:55N 01°15' E 103°53'0 0.3
2017-Nov-04 11:16N 01°15' E 103°53'0 0.1
2017-Nov-04 10:04N 01°15' E 103°53'0 0.0
2017-Nov-04 09:52N 01°15' E 103°53'0 0.1
2017-Nov-04 09:25N 01°15' E 103°53'0 0.0
2017-Nov-04 08:07N 01°15' E 103°53'0 0.0
2017-Nov-04 07:58N 01°15' E 103°53'0 0.0
2017-Nov-04 06:34N 01°15' E 103°53'0 0.0
2017-Nov-04 06:25N 01°15' E 103°53'0 0.1
2017-Nov-04 06:00N 01°15' E 103°53'1 2.8
2017-Nov-04 05:31N 01°14' E 103°54'2 3.1
2017-Nov-04 05:00N 01°13' E 103°54'3 6.3
2017-Nov-04 04:30N 01°11' E 103°51'4 7.7
2017-Nov-04 03:59N 01°09' E 103°48'4 7.4
2017-Nov-04 03:30N 01°07' E 103°45'4 6.9
2017-Nov-04 02:58N 01°04' E 103°42'4 8.0
2017-Nov-04 02:29N 01°03' E 103°38'612.8
2017-Nov-04 01:59N 01°07' E 103°33'  
Track history (hours):
 
Tides and Currents Weather Stations Pressure Air Temp Water Temp Dewpoint Dewpoint Depression Visibility Wind Speed Wind Dir Waves Ship Positions

Nordic Stockholm

Last reported at 2017-Nov-04 20:37 UTC. Time now 2017-Nov-19 08:58 UTC.
Position N 01°14' E 104°01'.
Warning: this ship's position is 14 days out of date.

Length 180 m; draft 10.5 m.

Type: Cargo ship. MMSI: 235079725.

Date/timePositionNaut miles runAvg speedWind from/ knotsBaromVisibWave heightAir tempDewpointWater temp
2017-Nov-04 20:37N 01°14' E 104°01'212.7
2017-Nov-04 20:30N 01°14' E 103°60'510.8
2017-Nov-04 20:00N 01°14' E 103°54'2 2.4
2017-Nov-04 19:19N 01°15' E 103°53'0 0.0
2017-Nov-04 18:55N 01°15' E 103°53'0 0.0
2017-Nov-04 18:19N 01°15' E 103°53'0 0.0
2017-Nov-04 17:58N 01°15' E 103°53'0 0.1
2017-Nov-04 17:28N 01°15' E 103°53'0 0.0
2017-Nov-04 16:58N 01°15' E 103°53'0 0.0
2017-Nov-04 16:28N 01°15' E 103°53'0 0.0
2017-Nov-04 15:55N 01°15' E 103°53'0 0.0
2017-Nov-04 15:25N 01°15' E 103°53'0 0.0
2017-Nov-04 14:55N 01°15' E 103°53'0 0.0
2017-Nov-04 14:19N 01°15' E 103°53'0 0.0
2017-Nov-04 13:49N 01°15' E 103°53'0 0.2
2017-Nov-04 13:28N 01°15' E 103°53'0 0.1
2017-Nov-04 12:52N 01°15' E 103°53'0 0.0
2017-Nov-04 12:25N 01°15' E 103°53'0 0.1
2017-Nov-04 11:55N 01°15' E 103°53'0 0.3
2017-Nov-04 11:16N 01°15' E 103°53'0 0.1
2017-Nov-04 10:04N 01°15' E 103°53'0 0.0
2017-Nov-04 09:52N 01°15' E 103°53'0 0.1
2017-Nov-04 09:25N 01°15' E 103°53'0 0.0
2017-Nov-04 08:07N 01°15' E 103°53'0 0.0
2017-Nov-04 07:58N 01°15' E 103°53'0 0.0
2017-Nov-04 06:34N 01°15' E 103°53'0 0.0
2017-Nov-04 06:25N 01°15' E 103°53'0 0.1
2017-Nov-04 06:00N 01°15' E 103°53'1 2.8
2017-Nov-04 05:31N 01°14' E 103°54'2 3.1
2017-Nov-04 05:00N 01°13' E 103°54'3 6.3
2017-Nov-04 04:30N 01°11' E 103°51'4 7.7
2017-Nov-04 03:59N 01°09' E 103°48'4 7.4
2017-Nov-04 03:30N 01°07' E 103°45'4 6.9
2017-Nov-04 02:58N 01°04' E 103°42'4 8.0
2017-Nov-04 02:29N 01°03' E 103°38'612.8
2017-Nov-04 01:59N 01°07' E 103°33'  

Dump ship's entire track history